createdAt,value
2018-11-10T00:00:57.810Z,8.00
2018-11-10T00:03:26.439Z,8.10
2018-11-10T00:05:55.181Z,8.10
2018-11-10T00:08:23.610Z,8.10
2018-11-10T00:10:52.495Z,8.10
2018-11-10T00:13:21.447Z,8.10
2018-11-10T00:15:49.854Z,8.10
2018-11-10T00:18:18.325Z,8.10
2018-11-10T00:20:47.208Z,8.10
2018-11-10T00:23:15.769Z,8.00
2018-11-10T00:25:44.457Z,8.10
2018-11-10T00:28:13.092Z,8.10
2018-11-10T00:30:41.864Z,8.10
2018-11-10T00:33:10.657Z,8.10
2018-11-10T00:35:39.285Z,8.10
2018-11-10T00:38:07.921Z,8.10
2018-11-10T00:40:36.565Z,8.10
2018-11-10T00:43:05.338Z,8.10
2018-11-10T00:45:33.984Z,8.10
2018-11-10T00:48:02.924Z,8.10
2018-11-10T00:50:31.535Z,8.10
2018-11-10T00:53:00.003Z,8.10
2018-11-10T00:55:28.669Z,8.10
2018-11-10T00:57:57.315Z,8.10
2018-11-10T01:00:25.997Z,8.10
2018-11-10T01:02:54.908Z,8.10
2018-11-10T01:05:23.839Z,8.20
2018-11-10T01:07:52.242Z,8.10
2018-11-10T01:10:20.773Z,8.10
2018-11-10T01:12:49.429Z,8.10
2018-11-10T01:15:17.744Z,8.10
2018-11-10T01:17:46.387Z,8.10
2018-11-10T01:20:15.569Z,8.10
2018-11-10T01:22:44.066Z,8.10
2018-11-10T01:25:12.891Z,8.10
2018-11-10T01:27:41.610Z,8.10
2018-11-10T01:30:15.822Z,8.10
2018-11-10T01:32:45.234Z,8.20
2018-11-10T01:35:14.505Z,8.20
2018-11-10T01:37:43.070Z,8.20
2018-11-10T01:40:13.133Z,8.20
2018-11-10T01:42:42.368Z,8.20
2018-11-10T01:45:13.565Z,8.20
2018-11-10T01:47:42.502Z,8.20
2018-11-10T01:50:11.718Z,8.20
2018-11-10T01:52:40.717Z,8.10
2018-11-10T01:55:09.812Z,8.10
2018-11-10T01:57:38.301Z,8.10
2018-11-10T02:00:12.072Z,8.10
2018-11-10T02:02:40.447Z,8.10
2018-11-10T02:05:09.426Z,8.10
2018-11-10T02:07:37.997Z,8.10
2018-11-10T02:10:07.451Z,8.10
2018-11-10T02:12:36.020Z,8.10
2018-11-10T02:15:04.599Z,8.20
2018-11-10T02:17:33.456Z,8.10
2018-11-10T02:20:02.066Z,8.10
2018-11-10T02:22:31.178Z,8.10
2018-11-10T02:24:59.536Z,8.10
2018-11-10T02:27:28.444Z,8.10
2018-11-10T02:29:57.219Z,8.10
2018-11-10T02:32:25.566Z,8.10
2018-11-10T02:34:54.334Z,8.10
2018-11-10T02:37:23.418Z,8.10
2018-11-10T02:39:51.737Z,8.10
2018-11-10T02:42:20.388Z,8.10
2018-11-10T02:44:49.572Z,8.10
2018-11-10T02:47:17.898Z,8.10
2018-11-10T02:49:46.610Z,8.10
2018-11-10T02:52:15.486Z,8.10
2018-11-10T02:54:43.831Z,8.10
2018-11-10T02:57:12.498Z,8.10
2018-11-10T02:59:41.180Z,8.10
2018-11-10T03:02:09.480Z,8.20
2018-11-10T03:04:38.095Z,8.20
2018-11-10T03:07:07.119Z,8.20
2018-11-10T03:09:35.414Z,8.20
2018-11-10T03:12:04.301Z,8.20
2018-11-10T03:14:33.599Z,8.10
2018-11-10T03:17:02.244Z,8.10
2018-11-10T03:19:30.852Z,8.10
2018-11-10T03:21:59.518Z,8.10
2018-11-10T03:24:27.856Z,8.10
2018-11-10T03:26:56.406Z,8.10
2018-11-10T03:29:25.357Z,8.20
2018-11-10T03:31:53.696Z,8.10
2018-11-10T03:34:22.315Z,8.10
2018-11-10T03:36:51.078Z,8.10
2018-11-10T03:39:19.400Z,8.10
2018-11-10T03:41:48.065Z,8.10
2018-11-10T03:44:17.276Z,8.10
2018-11-10T03:46:45.629Z,8.10
2018-11-10T03:49:14.417Z,8.10
2018-11-10T03:51:43.200Z,8.10
2018-11-10T03:54:11.781Z,8.10
2018-11-10T03:56:40.471Z,8.10
2018-11-10T03:59:09.271Z,8.10
2018-11-10T04:01:37.732Z,8.10
2018-11-10T04:04:06.681Z,8.10
2018-11-10T04:06:35.612Z,8.10
2018-11-10T04:09:04.907Z,8.10
2018-11-10T04:11:33.504Z,8.10
2018-11-10T04:14:02.271Z,8.10
2018-11-10T04:16:31.486Z,8.10
2018-11-10T04:19:00.325Z,8.10
2018-11-10T04:21:29.089Z,8.10
2018-11-10T04:23:57.436Z,8.10
2018-11-10T04:26:26.380Z,8.10
2018-11-10T04:28:55.035Z,8.10
2018-11-10T04:31:23.941Z,8.10
2018-11-10T04:33:52.699Z,8.10
2018-11-10T04:36:21.204Z,8.10
2018-11-10T04:38:49.551Z,8.10
2018-11-10T04:41:18.191Z,8.10
2018-11-10T04:43:46.587Z,8.10
2018-11-10T04:46:15.243Z,8.10
2018-11-10T04:48:44.236Z,8.10
2018-11-10T04:51:13.029Z,8.10
2018-11-10T04:53:41.481Z,8.10
2018-11-10T04:56:10.310Z,8.10
2018-11-10T04:58:39.258Z,8.10
2018-11-10T05:01:07.610Z,8.10
2018-11-10T05:03:36.343Z,8.10
2018-11-10T05:06:05.115Z,8.10
2018-11-10T05:08:33.492Z,8.10
2018-11-10T05:11:02.402Z,8.00
2018-11-10T05:13:31.596Z,8.10
2018-11-10T05:16:00.076Z,8.00
2018-11-10T05:18:29.216Z,8.00
2018-11-10T05:20:58.204Z,8.00
2018-11-10T05:23:27.348Z,8.00
2018-11-10T05:25:56.215Z,8.00
2018-11-10T05:28:25.342Z,8.00
2018-11-10T05:30:53.868Z,8.00
2018-11-10T05:33:22.891Z,8.00
2018-11-10T05:35:51.518Z,8.00
2018-11-10T05:38:19.846Z,8.00
2018-11-10T05:40:48.766Z,8.00
2018-11-10T05:43:17.964Z,8.00
2018-11-10T05:45:46.254Z,8.00
2018-11-10T05:48:15.027Z,8.00
2018-11-10T05:50:43.598Z,8.00
2018-11-10T05:53:11.874Z,8.00
2018-11-10T05:55:41.195Z,8.00
2018-11-10T05:58:09.945Z,8.00
2018-11-10T06:00:38.261Z,8.00
2018-11-10T06:03:07.783Z,8.00
2018-11-10T06:05:36.463Z,8.00
2018-11-10T06:08:05.402Z,8.00
2018-11-10T06:10:34.520Z,8.00
2018-11-10T06:13:03.300Z,8.00
2018-11-10T06:15:31.666Z,8.00
2018-11-10T06:18:00.725Z,8.00
2018-11-10T06:20:29.513Z,8.00
2018-11-10T06:22:57.875Z,8.00
2018-11-10T06:25:26.818Z,8.00
2018-11-10T06:27:55.384Z,8.00
2018-11-10T06:30:23.786Z,8.00
2018-11-10T06:32:52.679Z,8.00
2018-11-10T06:35:21.675Z,8.00
2018-11-10T06:37:49.980Z,8.00
2018-11-10T06:40:18.883Z,8.00
2018-11-10T06:42:47.663Z,8.00
2018-11-10T06:45:16.945Z,8.00
2018-11-10T06:47:45.861Z,8.10
2018-11-10T06:50:14.669Z,8.10
2018-11-10T06:52:43.294Z,8.00
2018-11-10T06:55:12.242Z,8.00
2018-11-10T06:57:40.823Z,8.00
2018-11-10T07:00:11.020Z,8.10
2018-11-10T07:02:39.850Z,8.10
2018-11-10T07:05:08.853Z,8.10
2018-11-10T07:07:37.881Z,8.10
2018-11-10T07:10:07.564Z,8.00
2018-11-10T07:12:36.075Z,8.10
2018-11-10T07:15:05.078Z,8.00
2018-11-10T07:17:34.078Z,8.10
2018-11-10T07:20:02.881Z,8.10
2018-11-10T07:22:31.524Z,8.10
2018-11-10T07:25:00.311Z,8.10
2018-11-10T07:27:28.981Z,8.10
2018-11-10T07:29:57.670Z,8.10
2018-11-10T07:32:27.124Z,8.10
2018-11-10T07:34:55.946Z,8.10
2018-11-10T07:37:24.749Z,8.10
2018-11-10T07:39:53.153Z,8.10
2018-11-10T07:42:21.948Z,8.20
2018-11-10T07:44:50.284Z,8.10
2018-11-10T07:47:18.912Z,8.20
2018-11-10T07:49:47.771Z,8.20
2018-11-10T07:52:16.139Z,8.20
2018-11-10T07:54:44.660Z,8.30
2018-11-10T07:57:13.924Z,8.20
2018-11-10T07:59:42.485Z,8.30
2018-11-10T08:02:11.322Z,8.30
2018-11-10T08:04:40.785Z,8.30
2018-11-10T08:07:09.368Z,8.30
2018-11-10T08:09:38.307Z,8.30
2018-11-10T08:12:07.326Z,8.30
2018-11-10T08:14:35.759Z,8.30
2018-11-10T08:17:04.346Z,8.30
2018-11-10T08:19:33.389Z,8.30
2018-11-10T08:22:01.779Z,8.30
2018-11-10T08:24:30.411Z,8.30
2018-11-10T08:26:59.243Z,8.30
2018-11-10T08:29:27.690Z,8.30
2018-11-10T08:31:56.306Z,8.30
2018-11-10T08:34:25.060Z,8.30
2018-11-10T08:36:53.374Z,8.40
2018-11-10T08:39:22.266Z,8.40
2018-11-10T08:41:51.245Z,8.40
2018-11-10T08:44:19.578Z,8.40
2018-11-10T08:46:48.415Z,8.40
2018-11-10T08:49:17.429Z,8.40
2018-11-10T08:51:45.784Z,8.40
2018-11-10T08:54:15.268Z,8.40
2018-11-10T08:56:43.854Z,8.40
2018-11-10T08:59:12.187Z,8.40
2018-11-10T09:01:40.672Z,8.50
2018-11-10T09:04:09.460Z,8.50
2018-11-10T09:06:37.815Z,8.50
2018-11-10T09:09:08.540Z,8.50
2018-11-10T09:11:37.468Z,8.50
2018-11-10T09:14:05.938Z,8.50
2018-11-10T09:16:34.623Z,8.60
2018-11-10T09:19:03.439Z,8.60
2018-11-10T09:21:31.787Z,8.60
2018-11-10T09:24:00.671Z,8.60
2018-11-10T09:26:29.451Z,8.60
2018-11-10T09:28:57.900Z,8.60
2018-11-10T09:31:26.473Z,8.60
2018-11-10T09:33:55.238Z,8.60
2018-11-10T09:36:23.553Z,8.60
2018-11-10T09:38:52.195Z,8.60
2018-11-10T09:41:20.781Z,8.60
2018-11-10T09:43:49.091Z,8.60
2018-11-10T09:46:18.265Z,8.60
2018-11-10T09:48:47.000Z,8.70
2018-11-10T09:51:15.299Z,8.80
2018-11-10T09:53:44.132Z,8.80
2018-11-10T09:56:12.580Z,8.80
2018-11-10T09:58:40.938Z,8.80
2018-11-10T10:01:09.883Z,8.80
2018-11-10T10:03:38.458Z,8.90
2018-11-10T10:06:07.548Z,8.80
2018-11-10T10:08:36.141Z,8.80
2018-11-10T10:11:04.858Z,8.90
2018-11-10T10:13:34.131Z,8.90
2018-11-10T10:16:02.849Z,8.90
2018-11-10T10:18:31.388Z,8.90
2018-11-10T10:21:00.223Z,9.00
2018-11-10T10:23:28.829Z,8.90
2018-11-10T10:25:57.606Z,8.90
2018-11-10T10:28:26.038Z,8.90
2018-11-10T10:30:54.854Z,8.90
2018-11-10T10:33:23.490Z,8.90
2018-11-10T10:35:52.240Z,8.90
2018-11-10T10:38:21.076Z,8.90
2018-11-10T10:40:50.106Z,8.90
2018-11-10T10:43:18.431Z,8.90
2018-11-10T10:45:47.437Z,8.90
2018-11-10T10:48:16.565Z,8.90
2018-11-10T10:50:44.873Z,8.90
2018-11-10T10:53:14.150Z,9.00
2018-11-10T10:55:43.351Z,9.00
2018-11-10T10:58:11.780Z,9.00
2018-11-10T11:00:45.682Z,9.10
2018-11-10T11:03:19.557Z,9.10
2018-11-10T11:05:53.370Z,9.10
2018-11-10T11:08:22.455Z,9.20
2018-11-10T11:10:50.866Z,9.20
2018-11-10T11:13:19.707Z,9.20
2018-11-10T11:15:48.588Z,9.20
2018-11-10T11:18:17.289Z,9.20
2018-11-10T11:20:46.381Z,9.10
2018-11-10T11:23:15.313Z,9.10
2018-11-10T11:25:43.720Z,9.00
2018-11-10T11:28:13.200Z,9.00
2018-11-10T11:30:42.165Z,9.00
2018-11-10T11:33:10.625Z,9.00
2018-11-10T11:35:39.689Z,9.00
2018-11-10T11:38:08.556Z,8.90
2018-11-10T11:40:36.950Z,8.90
2018-11-10T11:43:06.702Z,8.90
2018-11-10T11:45:35.290Z,8.90
2018-11-10T11:48:03.789Z,8.80
2018-11-10T11:50:33.066Z,8.80
2018-11-10T11:53:01.685Z,8.80
2018-11-10T11:55:30.350Z,8.80
2018-11-10T11:57:59.408Z,8.90
2018-11-10T12:00:28.131Z,8.90
2018-11-10T12:02:56.507Z,9.00
2018-11-10T12:05:25.171Z,9.00
2018-11-10T12:07:53.763Z,8.90
2018-11-10T12:10:22.291Z,8.90
2018-11-10T12:12:50.949Z,8.90
2018-11-10T12:15:19.753Z,8.90
2018-11-10T12:17:48.303Z,8.90
2018-11-10T12:20:17.425Z,8.90
2018-11-10T12:22:46.512Z,8.90
2018-11-10T12:25:15.181Z,8.90
2018-11-10T12:27:44.257Z,8.80
2018-11-10T12:30:14.015Z,8.80
2018-11-10T12:32:42.706Z,8.80
2018-11-10T12:35:13.073Z,8.70
2018-11-10T12:37:41.691Z,8.70
2018-11-10T12:40:11.436Z,8.60
2018-11-10T12:42:40.950Z,8.70
2018-11-10T12:45:10.680Z,8.70
2018-11-10T12:47:39.682Z,8.70
2018-11-10T12:50:10.404Z,8.60
2018-11-10T12:52:38.992Z,8.60
2018-11-10T12:55:08.460Z,8.60
2018-11-10T12:57:37.105Z,8.60
2018-11-10T13:00:06.780Z,8.50
2018-11-10T13:02:35.461Z,8.50
2018-11-10T13:05:04.304Z,8.50
2018-11-10T13:07:33.152Z,8.60
2018-11-10T13:10:01.673Z,8.60
2018-11-10T13:12:30.557Z,8.60
2018-11-10T13:14:59.501Z,8.60
2018-11-10T13:17:28.187Z,8.60
2018-11-10T13:19:56.918Z,8.50
2018-11-10T13:22:25.720Z,8.50
2018-11-10T13:24:54.045Z,8.50
2018-11-10T13:27:22.832Z,8.40
2018-11-10T13:29:51.425Z,8.40
2018-11-10T13:32:19.989Z,8.40
2018-11-10T13:34:49.227Z,8.40
2018-11-10T13:37:18.297Z,8.40
2018-11-10T13:39:46.947Z,8.40
2018-11-10T13:42:15.907Z,8.40
2018-11-10T13:44:44.666Z,8.40
2018-11-10T13:47:13.045Z,8.40
2018-11-10T13:49:41.594Z,8.30
2018-11-10T13:52:10.484Z,8.40
2018-11-10T13:54:38.650Z,8.30
2018-11-10T13:57:07.503Z,8.30
2018-11-10T13:59:36.479Z,8.30
2018-11-10T14:02:05.055Z,8.30
2018-11-10T14:04:33.709Z,8.30
2018-11-10T14:07:02.716Z,8.30
2018-11-10T14:09:31.203Z,8.30
2018-11-10T14:12:00.057Z,8.30
2018-11-10T14:14:29.045Z,8.30
2018-11-10T14:16:57.532Z,8.40
2018-11-10T14:19:26.135Z,8.30
2018-11-10T14:21:54.741Z,8.30
2018-11-10T14:24:23.056Z,8.30
2018-11-10T14:26:52.025Z,8.30
2018-11-10T14:29:21.064Z,8.30
2018-11-10T14:31:49.377Z,8.30
2018-11-10T14:34:18.688Z,8.30
2018-11-10T14:36:47.333Z,8.30
2018-11-10T14:39:15.698Z,8.20
2018-11-10T14:41:44.896Z,8.20
2018-11-10T14:44:13.677Z,8.10
2018-11-10T14:46:42.127Z,8.10
2018-11-10T14:49:10.948Z,8.10
2018-11-10T14:51:39.751Z,8.10
2018-11-10T14:54:09.162Z,8.10
2018-11-10T14:56:38.391Z,8.10
2018-11-10T14:59:07.309Z,8.10
2018-11-10T15:01:35.588Z,8.00
2018-11-10T15:04:04.442Z,8.10
2018-11-10T15:06:33.182Z,8.10
2018-11-10T15:09:02.066Z,8.10
2018-11-10T15:11:30.774Z,8.00
2018-11-10T15:13:59.436Z,8.00
2018-11-10T15:16:28.046Z,8.00
2018-11-10T15:18:56.713Z,8.00
2018-11-10T15:21:25.335Z,8.00
2018-11-10T15:23:54.132Z,8.00
2018-11-10T15:26:22.755Z,8.00
2018-11-10T15:28:51.387Z,7.90
2018-11-10T15:31:19.731Z,8.00
2018-11-10T15:33:49.272Z,8.00
2018-11-10T15:36:18.859Z,8.00
2018-11-10T15:38:47.205Z,7.90
2018-11-10T15:41:16.561Z,7.90
2018-11-10T15:43:45.745Z,8.00
2018-11-10T15:46:14.219Z,7.90
2018-11-10T15:48:42.769Z,7.90
2018-11-10T15:51:11.385Z,7.90
2018-11-10T15:53:39.707Z,7.90
2018-11-10T15:56:08.503Z,7.90
2018-11-10T15:58:37.376Z,7.90
2018-11-10T16:01:05.951Z,8.00
2018-11-10T16:03:34.875Z,7.90
2018-11-10T16:06:03.955Z,7.90
2018-11-10T16:08:32.315Z,7.90
2018-11-10T16:11:01.249Z,7.90
2018-11-10T16:13:30.017Z,7.90
2018-11-10T16:15:58.318Z,7.90
2018-11-10T16:18:27.017Z,7.90
2018-11-10T16:20:56.160Z,7.80
2018-11-10T16:23:24.579Z,7.80
2018-11-10T16:25:53.342Z,7.80
2018-11-10T16:28:22.125Z,7.80
2018-11-10T16:30:50.449Z,7.80
2018-11-10T16:33:19.097Z,7.80
2018-11-10T16:35:48.221Z,7.80
2018-11-10T16:38:16.736Z,7.70
2018-11-10T16:40:45.765Z,7.80
2018-11-10T16:43:14.545Z,7.80
2018-11-10T16:45:43.110Z,7.80
2018-11-10T16:48:11.812Z,7.80
2018-11-10T16:50:40.603Z,7.80
2018-11-10T16:53:10.536Z,7.90
2018-11-10T16:55:39.713Z,7.80
2018-11-10T16:58:08.388Z,7.80
2018-11-10T17:00:36.824Z,7.80
2018-11-10T17:03:05.918Z,7.80
2018-11-10T17:05:35.404Z,7.90
2018-11-10T17:08:03.830Z,7.80
2018-11-10T17:10:33.202Z,7.80
2018-11-10T17:13:01.690Z,7.80
2018-11-10T17:15:30.417Z,7.80
2018-11-10T17:17:59.723Z,7.80
2018-11-10T17:20:28.181Z,7.70
2018-11-10T17:22:57.130Z,7.80
2018-11-10T17:25:25.615Z,7.80
2018-11-10T17:27:54.873Z,7.80
2018-11-10T17:30:23.266Z,7.80
2018-11-10T17:32:51.838Z,7.80
2018-11-10T17:35:20.577Z,7.70
2018-11-10T17:37:49.675Z,7.80
2018-11-10T17:40:18.211Z,7.80
2018-11-10T17:42:47.242Z,7.80
2018-11-10T17:45:16.972Z,7.80
2018-11-10T17:47:45.743Z,7.80
2018-11-10T17:50:15.262Z,7.80
2018-11-10T17:52:43.657Z,7.80
2018-11-10T17:55:13.748Z,7.80
2018-11-10T17:57:42.720Z,7.80
2018-11-10T18:00:11.062Z,7.80
2018-11-10T18:02:39.884Z,7.80
2018-11-10T18:05:10.261Z,7.90
2018-11-10T18:07:38.625Z,7.90
2018-11-10T18:10:09.182Z,7.90
2018-11-10T18:12:37.760Z,7.80
2018-11-10T18:15:07.902Z,7.90
2018-11-10T18:17:37.215Z,7.80
2018-11-10T18:20:06.891Z,7.80
2018-11-10T18:22:35.368Z,7.80
2018-11-10T18:25:04.067Z,7.90
2018-11-10T18:27:32.688Z,7.80
2018-11-10T18:30:01.110Z,7.90
2018-11-10T18:32:30.299Z,7.90
2018-11-10T18:34:58.846Z,7.90
2018-11-10T18:37:27.261Z,7.90
2018-11-10T18:39:56.184Z,7.90
2018-11-10T18:42:24.604Z,7.90
2018-11-10T18:44:53.327Z,7.90
2018-11-10T18:47:22.192Z,7.90
2018-11-10T18:49:50.699Z,7.90
2018-11-10T18:52:19.334Z,7.90
2018-11-10T18:54:48.253Z,7.90
2018-11-10T18:57:16.627Z,7.90
2018-11-10T18:59:44.882Z,7.90
2018-11-10T19:02:14.153Z,7.90
2018-11-10T19:04:42.750Z,8.00
2018-11-10T19:07:12.025Z,8.00
2018-11-10T19:09:40.980Z,8.00
2018-11-10T19:12:09.342Z,8.00
2018-11-10T19:14:38.061Z,8.00
2018-11-10T19:17:07.044Z,8.00
2018-11-10T19:19:35.396Z,8.00
2018-11-10T19:22:03.752Z,8.00
2018-11-10T19:24:32.783Z,8.00
2018-11-10T19:27:01.222Z,8.00
2018-11-10T19:29:29.838Z,8.00
2018-11-10T19:31:58.587Z,8.00
2018-11-10T19:34:26.967Z,8.00
2018-11-10T19:36:55.643Z,8.00
2018-11-10T19:39:24.734Z,8.00
2018-11-10T19:41:53.598Z,8.10
2018-11-10T19:44:22.058Z,8.00
2018-11-10T19:46:50.967Z,8.00
2018-11-10T19:49:19.413Z,8.10
2018-11-10T19:51:47.962Z,8.10
2018-11-10T19:54:16.377Z,8.10
2018-11-10T19:56:44.812Z,8.10
2018-11-10T19:59:13.150Z,8.10
2018-11-10T20:01:42.132Z,8.10
2018-11-10T20:04:10.827Z,8.10
2018-11-10T20:06:39.254Z,8.10
2018-11-10T20:09:09.254Z,8.10
2018-11-10T20:11:38.135Z,8.10
2018-11-10T20:14:07.017Z,8.10
2018-11-10T20:16:35.926Z,8.10
2018-11-10T20:19:04.441Z,8.10
2018-11-10T20:21:33.258Z,8.20
2018-11-10T20:24:02.264Z,8.20
2018-11-10T20:26:30.664Z,8.20
2018-11-10T20:28:59.351Z,8.20
2018-11-10T20:31:28.806Z,8.20
2018-11-10T20:33:57.192Z,8.20
2018-11-10T20:36:25.628Z,8.20
2018-11-10T20:38:54.944Z,8.20
2018-11-10T20:41:23.264Z,8.20
2018-11-10T20:43:51.651Z,8.20
2018-11-10T20:46:20.628Z,8.20
2018-11-10T20:48:49.040Z,8.20
2018-11-10T20:51:17.424Z,8.20
2018-11-10T20:53:46.809Z,8.20
2018-11-10T20:56:15.199Z,8.20
2018-11-10T20:58:43.637Z,8.30
2018-11-10T21:01:12.811Z,8.30
2018-11-10T21:03:41.181Z,8.30
2018-11-10T21:06:09.490Z,8.30
2018-11-10T21:08:38.614Z,8.30
2018-11-10T21:11:06.965Z,8.30
2018-11-10T21:13:35.480Z,8.30
2018-11-10T21:16:04.975Z,8.30
2018-11-10T21:18:33.351Z,8.40
2018-11-10T21:21:01.903Z,8.40
2018-11-10T21:23:31.363Z,8.40
2018-11-10T21:26:00.053Z,8.40
2018-11-10T21:28:28.464Z,8.40
2018-11-10T21:30:57.326Z,8.40
2018-11-10T21:33:26.140Z,8.40
2018-11-10T21:35:54.632Z,8.40
2018-11-10T21:38:23.596Z,8.40
2018-11-10T21:40:51.914Z,8.50
2018-11-10T21:43:20.373Z,8.40
2018-11-10T21:45:49.338Z,8.50
2018-11-10T21:48:18.184Z,8.40
2018-11-10T21:50:46.612Z,8.40
2018-11-10T21:53:15.408Z,8.40
2018-11-10T21:55:43.724Z,8.40
2018-11-10T21:58:12.046Z,8.40
2018-11-10T22:00:41.298Z,8.40
2018-11-10T22:03:09.881Z,8.40
2018-11-10T22:05:38.216Z,8.50
2018-11-10T22:08:07.146Z,8.50
2018-11-10T22:10:35.933Z,8.40
2018-11-10T22:13:04.976Z,8.50
2018-11-10T22:15:33.772Z,8.50
2018-11-10T22:18:02.117Z,8.40
2018-11-10T22:20:30.429Z,8.50
2018-11-10T22:22:59.505Z,8.50
2018-11-10T22:25:28.326Z,8.50
2018-11-10T22:27:56.795Z,8.50
2018-11-10T22:30:25.377Z,8.60
2018-11-10T22:32:53.830Z,8.60
2018-11-10T22:35:22.134Z,8.60
2018-11-10T22:37:51.268Z,8.60
2018-11-10T22:40:20.838Z,8.60
2018-11-10T22:42:49.364Z,8.60
2018-11-10T22:45:19.327Z,8.60
2018-11-10T22:47:47.694Z,8.60
2018-11-10T22:50:17.502Z,8.60
2018-11-10T22:52:46.596Z,8.60
2018-11-10T22:55:14.976Z,8.70
2018-11-10T22:57:43.330Z,8.60
2018-11-10T23:00:18.793Z,8.70
2018-11-10T23:02:48.501Z,8.70
2018-11-10T23:05:17.691Z,8.70
2018-11-10T23:07:46.708Z,8.70
2018-11-10T23:10:15.504Z,8.70
2018-11-10T23:12:45.077Z,8.70
2018-11-10T23:15:13.980Z,8.70
2018-11-10T23:17:42.285Z,8.70
2018-11-10T23:20:12.359Z,8.70
2018-11-10T23:22:41.465Z,8.70
2018-11-10T23:25:12.593Z,8.70
2018-11-10T23:27:41.760Z,8.80
2018-11-10T23:30:12.522Z,8.80
2018-11-10T23:32:41.365Z,8.80
2018-11-10T23:35:10.565Z,8.80
2018-11-10T23:37:40.086Z,8.80
2018-11-10T23:40:10.629Z,8.80
2018-11-10T23:42:39.645Z,8.80
2018-11-10T23:45:08.296Z,8.80
2018-11-10T23:47:37.128Z,8.80
2018-11-10T23:50:06.760Z,8.80
2018-11-10T23:52:35.654Z,8.80
2018-11-10T23:55:04.045Z,8.80
2018-11-10T23:57:32.981Z,8.80
